Time;durP1;ratioP1;P1;durP2;ratioP2;P2;SDS_P1;SDS_P2;PMS_P1;PMS_P2;Temp;Humidity;BMP_temperature;BMP_pressure;BME280_temperature;BME280_humidity;BME280_pressure;Samples;Min_cycle;Max_cycle;Signal;HPM_P1;HPM_P2
2022/05/10 00:00:58;;;;;;;13.27;8.02;;;9.90;99.90;;;;;;5096367;28;20104;-47
2022/05/10 00:03:37;;;;;;;16.52;8.45;;;9.90;99.90;;;;;;5095762;28;20086;-44
2022/05/10 00:06:05;;;;;;;17.75;8.63;;;10.90;99.90;;;;;;5094331;28;20550;-50
2022/05/10 00:08:31;;;;;;;19.15;9.45;;;9.60;99.90;;;;;;5096278;28;20065;-49
2022/05/10 00:10:59;;;;;;;16.42;9.23;;;9.70;99.90;;;;;;5095146;28;20031;-46
2022/05/10 00:13:25;;;;;;;17.50;9.63;;;9.40;99.90;;;;;;5095465;28;20042;-48
2022/05/10 00:15:51;;;;;;;14.73;8.73;;;9.40;99.90;;;;;;5095151;28;20096;-46
2022/05/10 00:18:20;;;;;;;17.33;8.07;;;9.30;99.90;;;;;;5093891;28;20044;-50
2022/05/10 00:20:47;;;;;;;17.13;8.52;;;9.50;99.90;;;;;;5094218;28;20654;-49
2022/05/10 00:23:13;;;;;;;16.85;8.30;;;9.60;99.90;;;;;;5092914;28;20039;-46
2022/05/10 00:25:42;;;;;;;17.13;8.52;;;9.60;99.90;;;;;;5094710;28;20040;-44
2022/05/10 00:28:08;;;;;;;16.45;8.80;;;9.20;99.90;;;;;;5094013;28;20126;-46
2022/05/10 00:30:34;;;;;;;18.48;8.13;;;9.50;99.90;;;;;;5094098;28;20035;-46
2022/05/10 00:33:01;;;;;;;15.95;8.77;;;9.90;99.90;;;;;;5093490;28;20040;-44
2022/05/10 00:35:30;;;;;;;17.90;8.77;;;9.50;99.90;;;;;;5093556;28;20076;-50
2022/05/10 00:37:58;;;;;;;13.75;8.07;;;10.20;99.90;;;;;;5094076;28;20732;-44
2022/05/10 00:40:28;;;;;;;14.13;8.38;;;7.40;99.90;;;;;;5096010;28;20579;-47
2022/05/10 00:43:19;;;;;;;15.07;8.63;;;10.40;99.90;;;;;;5093777;28;20043;-46
2022/05/10 00:46:03;;;;;;;20.60;9.23;;;9.70;99.90;;;;;;5094123;28;20047;-45
2022/05/10 00:48:32;;;;;;;14.20;7.65;;;9.80;99.90;;;;;;5093597;28;20039;-45
2022/05/10 00:51:12;;;;;;;16.40;8.77;;;9.60;99.90;;;;;;5093488;28;20074;-48
2022/05/10 00:54:10;;;;;;;15.52;8.50;;;9.70;99.90;;;;;;5093892;28;20044;-44
2022/05/10 00:56:39;;;;;;;15.30;8.23;;;9.50;99.90;;;;;;5084819;28;20993;-45
2022/05/10 00:59:18;;;;;;;13.82;8.45;;;9.50;99.90;;;;;;5093939;28;20062;-45
2022/05/10 01:01:49;;;;;;;16.77;8.27;;;9.40;99.90;;;;;;5094782;28;20097;-47
2022/05/10 01:04:20;;;;;;;16.13;7.90;;;9.70;99.90;;;;;;5095570;28;20059;-49
2022/05/10 01:07:27;;;;;;;16.63;8.73;;;9.40;99.90;;;;;;5094868;28;20125;-47
2022/05/10 01:10:10;;;;;;;19.30;8.60;;;9.30;99.90;;;;;;5031809;28;20098;-47
2022/05/10 01:13:19;;;;;;;17.60;8.27;;;9.40;99.90;;;;;;5031906;28;20045;-46
2022/05/10 01:15:55;;;;;;;14.70;8.52;;;10.50;99.90;;;;;;4968677;28;20049;-46
2022/05/10 01:18:22;;;;;;;20.85;8.00;;;9.90;99.90;;;;;;4954331;28;20471;-45
2022/05/10 01:20:51;;;;;;;14.63;7.85;;;9.40;99.90;;;;;;4968704;28;20085;-47
2022/05/10 01:23:23;;;;;;;21.48;8.15;;;9.80;99.90;;;;;;4969299;28;20231;-46
2022/05/10 01:26:14;;;;;;;19.75;8.13;;;10.00;99.90;;;;;;4968845;28;20523;-49
2022/05/10 01:28:56;;;;;;;15.02;8.25;;;9.80;99.90;;;;;;4893602;29;20143;-44
2022/05/10 01:31:27;;;;;;;16.73;8.52;;;9.90;99.90;;;;;;4894402;29;20068;-46
2022/05/10 01:33:59;;;;;;;15.73;7.30;;;11.30;99.90;;;;;;4894309;29;20060;-46
2022/05/10 01:36:46;;;;;;;20.92;8.45;;;10.00;99.90;;;;;;4897025;29;20059;-45
2022/05/10 01:39:23;;;;;;;13.52;8.35;;;10.00;99.90;;;;;;4896253;29;20052;-45
2022/05/10 01:42:02;;;;;;;16.20;7.03;;;11.10;99.90;;;;;;4894034;29;20075;-44
2022/05/10 01:45:02;;;;;;;18.10;7.20;;;10.20;99.90;;;;;;4897184;29;20079;-47
2022/05/10 01:47:36;;;;;;;16.55;7.80;;;10.20;99.90;;;;;;4908233;29;20126;-45
2022/05/10 01:50:16;;;;;;;13.85;7.47;;;10.30;99.90;;;;;;4913124;29;20127;-50
2022/05/10 01:52:47;;;;;;;15.73;7.72;;;10.30;99.90;;;;;;4972330;28;20048;-48
2022/05/10 01:55:16;;;;;;;14.32;7.25;;;11.40;99.90;;;;;;5030052;28;20049;-45
2022/05/10 01:57:43;;;;;;;13.88;7.47;;;10.30;99.90;;;;;;5029520;28;20079;-49
2022/05/10 02:00:22;;;;;;;17.88;7.57;;;10.20;99.90;;;;;;5029593;28;20140;-44
2022/05/10 02:02:58;;;;;;;15.57;7.70;;;10.30;99.90;;;;;;5030035;28;20048;-45
2022/05/10 02:05:33;;;;;;;18.83;7.60;;;10.60;99.90;;;;;;5051775;28;20134;-46
2022/05/10 02:08:06;;;;;;;14.63;7.03;;;10.30;99.90;;;;;;5092465;28;20039;-46
2022/05/10 02:10:42;;;;;;;14.70;8.10;;;10.40;99.90;;;;;;5093141;28;20435;-47
2022/05/10 02:13:13;;;;;;;13.63;7.32;;;11.40;99.90;;;;;;5091775;28;20043;-45
2022/05/10 02:15:57;;;;;;;17.25;6.85;;;10.30;99.90;;;;;;5092471;28;20039;-46
2022/05/10 02:18:25;;;;;;;12.82;6.63;;;10.40;99.90;;;;;;5077883;28;20378;-46
2022/05/10 02:21:20;;;;;;;16.30;7.85;;;10.40;99.90;;;;;;5091884;28;20043;-50
2022/05/10 02:23:51;;;;;;;13.75;7.03;;;11.10;99.90;;;;;;5029177;28;20064;-44
2022/05/10 02:26:24;;;;;;;13.10;7.32;;;10.30;99.90;;;;;;5029812;28;20118;-46
2022/05/10 02:29:02;;;;;;;14.15;7.10;;;10.40;99.90;;;;;;5029411;28;20158;-45
2022/05/10 02:34:30;;;;;;;16.65;6.65;;;12.30;99.90;;;;;;5028374;28;20245;-47
2022/05/10 02:36:59;;;;;;;15.43;6.60;;;10.40;99.90;;;;;;5029587;28;20127;-46
2022/05/10 02:39:25;;;;;;;16.08;7.18;;;11.70;99.90;;;;;;5029366;28;20048;-47
2022/05/10 02:41:50;;;;;;;16.70;7.22;;;11.60;99.90;;;;;;5030554;28;20049;-45
2022/05/10 02:44:17;;;;;;;10.77;6.10;;;11.60;99.90;;;;;;5029227;28;20459;-46
2022/05/10 02:46:43;;;;;;;13.15;6.93;;;10.70;99.90;;;;;;5030633;28;20208;-45
2022/05/10 02:49:09;;;;;;;14.18;7.40;;;10.50;99.90;;;;;;5032228;28;20072;-45
2022/05/10 02:51:37;;;;;;;12.38;7.45;;;10.70;99.90;;;;;;5032652;28;20150;-46
2022/05/10 02:54:04;;;;;;;15.80;6.57;;;10.30;99.90;;;;;;5032302;28;20595;-45
2022/05/10 02:56:30;;;;;;;14.35;7.30;;;10.40;99.90;;;;;;5032424;28;20045;-47
2022/05/10 02:59:01;;;;;;;13.23;6.07;;;10.50;99.90;;;;;;5032183;28;20072;-45
2022/05/10 03:01:58;;;;;;;12.90;7.18;;;10.40;99.90;;;;;;5087175;28;20048;-45
2022/05/10 03:04:32;;;;;;;14.55;6.60;;;10.20;99.90;;;;;;5095685;28;20748;-46
2022/05/10 03:06:58;;;;;;;18.25;8.48;;;11.20;99.90;;;;;;5095317;28;20324;-46
2022/05/10 03:09:24;;;;;;;16.35;6.97;;;10.70;99.90;;;;;;5095990;28;20043;-45
2022/05/10 03:11:51;;;;;;;16.35;7.43;;;10.40;99.90;;;;;;5096158;28;20124;-45
2022/05/10 03:14:17;;;;;;;15.32;7.90;;;10.40;99.90;;;;;;5095837;28;20039;-48
2022/05/10 03:16:45;;;;;;;17.45;8.20;;;11.50;99.90;;;;;;5094063;28;20044;-45
2022/05/10 03:19:10;;;;;;;16.85;7.93;;;10.90;99.90;;;;;;5095291;28;20046;-45
2022/05/10 03:21:38;;;;;;;13.38;6.80;;;10.60;99.90;;;;;;5096156;28;20043;-45
2022/05/10 03:24:04;;;;;;;19.73;7.88;;;12.70;99.90;;;;;;5096250;28;20042;-46
2022/05/10 03:26:30;;;;;;;16.17;8.00;;;10.60;99.90;;;;;;5096126;28;20039;-46
2022/05/10 03:28:56;;;;;;;17.45;7.53;;;10.60;99.90;;;;;;5095649;28;20039;-47
2022/05/10 03:31:25;;;;;;;14.25;7.78;;;10.70;99.90;;;;;;5094728;28;20054;-45
2022/05/10 03:36:38;;;;;;;18.98;8.63;;;10.80;99.90;;;;;;5096367;28;20100;-46
2022/05/10 03:39:05;;;;;;;13.65;8.02;;;10.90;99.90;;;;;;5097206;28;20123;-46
2022/05/10 03:41:31;;;;;;;17.42;8.25;;;11.10;99.90;;;;;;5096898;28;20043;-47
2022/05/10 03:43:56;;;;;;;19.42;9.13;;;10.90;99.90;;;;;;5096347;28;20043;-47
2022/05/10 03:46:22;;;;;;;13.85;8.50;;;10.90;99.90;;;;;;5094403;28;20058;-45
2022/05/10 03:48:50;;;;;;;16.42;8.27;;;10.80;99.90;;;;;;5096083;28;20035;-46
2022/05/10 03:51:17;;;;;;;16.67;8.00;;;11.00;99.90;;;;;;5094760;28;20560;-47
2022/05/10 03:53:43;;;;;;;16.27;8.02;;;10.90;99.90;;;;;;5094874;28;20055;-49
2022/05/10 03:56:10;;;;;;;16.15;8.73;;;11.00;99.90;;;;;;5095388;28;20047;-48
2022/05/10 03:58:36;;;;;;;15.35;9.07;;;11.20;99.90;;;;;;5094674;28;20611;-48
2022/05/10 04:01:02;;;;;;;16.80;8.60;;;11.80;99.90;;;;;;5096043;28;20047;-46
2022/05/10 04:03:28;;;;;;;18.25;8.40;;;10.90;99.90;;;;;;5096327;28;20039;-45
2022/05/10 04:05:54;;;;;;;17.65;9.02;;;11.00;99.90;;;;;;5095961;28;20058;-50
2022/05/10 04:08:19;;;;;;;16.77;8.80;;;11.20;99.90;;;;;;5096355;28;20043;-46
2022/05/10 04:10:49;;;;;;;15.00;8.80;;;11.20;99.90;;;;;;5096944;28;20035;-46
2022/05/10 04:13:14;;;;;;;19.50;9.57;;;11.20;99.90;;;;;;5095668;28;20792;-45
2022/05/10 04:15:40;;;;;;;18.15;9.32;;;11.90;99.90;;;;;;5093684;28;20039;-45
2022/05/10 04:18:06;;;;;;;16.27;8.82;;;11.20;99.90;;;;;;5093437;28;20126;-46
2022/05/10 04:20:33;;;;;;;18.20;9.07;;;11.30;99.90;;;;;;5095525;28;20127;-45
2022/05/10 04:23:00;;;;;;;17.13;9.23;;;12.40;99.90;;;;;;5094611;28;20092;-47
2022/05/10 04:25:25;;;;;;;15.95;10.30;;;11.50;99.90;;;;;;5093990;28;20573;-50
2022/05/10 04:27:54;;;;;;;17.00;8.82;;;11.40;99.90;;;;;;5092557;28;20055;-48
2022/05/10 04:30:22;;;;;;;15.75;8.93;;;11.50;99.90;;;;;;5093805;28;20584;-50
2022/05/10 04:32:49;;;;;;;17.65;9.57;;;12.40;99.90;;;;;;5094696;28;20483;-45
2022/05/10 04:35:15;;;;;;;20.92;9.82;;;12.20;99.90;;;;;;5094773;28;20047;-46
2022/05/10 04:37:41;;;;;;;14.48;8.65;;;13.20;99.90;;;;;;5093630;28;20096;-44
2022/05/10 04:42:52;;;;;;;14.98;8.82;;;11.70;99.90;;;;;;5094480;28;20085;-47
2022/05/10 04:45:19;;;;;;;16.63;8.57;;;11.70;99.90;;;;;;5093914;28;20452;-46
2022/05/10 04:47:45;;;;;;;20.65;9.15;;;11.70;99.90;;;;;;5093572;28;21053;-47
2022/05/10 04:50:14;;;;;;;15.80;8.93;;;11.90;99.90;;;;;;5093060;28;20040;-46
2022/05/10 04:52:40;;;;;;;16.00;8.98;;;11.90;99.90;;;;;;5093396;28;20051;-46
2022/05/10 04:55:09;;;;;;;16.25;9.23;;;12.10;99.90;;;;;;5094101;28;20499;-46
2022/05/10 04:57:38;;;;;;;15.70;9.10;;;12.10;99.90;;;;;;5093773;28;20039;-47
2022/05/10 05:00:06;;;;;;;16.23;9.75;;;12.20;99.90;;;;;;5092226;28;20032;-45
2022/05/10 05:02:32;;;;;;;16.60;9.95;;;10.00;99.90;;;;;;5092252;28;20045;-45
2022/05/10 05:04:58;;;;;;;17.45;9.07;;;12.20;99.90;;;;;;5091602;28;20044;-46
2022/05/10 05:07:23;;;;;;;18.08;9.50;;;12.80;99.90;;;;;;5090715;28;20055;-47
2022/05/10 05:09:49;;;;;;;17.00;10.10;;;12.20;99.90;;;;;;5091676;28;20039;-46
2022/05/10 05:12:15;;;;;;;17.42;10.32;;;13.50;99.90;;;;;;5087952;28;20039;-46
2022/05/10 05:14:41;;;;;;;19.08;9.70;;;12.30;99.90;;;;;;5093256;28;20515;-48
2022/05/10 05:17:07;;;;;;;17.58;9.35;;;12.30;99.90;;;;;;5092726;28;20054;-49
2022/05/10 05:19:33;;;;;;;20.35;10.15;;;12.40;99.90;;;;;;5093283;28;20051;-48
2022/05/10 05:22:01;;;;;;;14.50;9.43;;;12.40;99.90;;;;;;5094234;28;20039;-46
2022/05/10 05:24:28;;;;;;;16.88;10.65;;;12.50;99.90;;;;;;5094602;28;20499;-48
2022/05/10 05:26:54;;;;;;;22.05;10.10;;;12.60;99.90;;;;;;5093200;28;20598;-45
2022/05/10 05:29:20;;;;;;;18.77;9.57;;;14.10;99.90;;;;;;5092393;28;20043;-47
2022/05/10 05:31:48;;;;;;;18.38;10.38;;;12.80;99.90;;;;;;5091741;28;20050;-46
2022/05/10 05:34:13;;;;;;;15.77;10.90;;;12.90;99.90;;;;;;5092181;28;20132;-46
2022/05/10 05:36:42;;;;;;;19.08;10.35;;;14.60;99.90;;;;;;5093411;28;20031;-45
2022/05/10 05:39:08;;;;;;;18.48;10.10;;;13.10;99.90;;;;;;5092169;28;20028;-47
2022/05/10 05:41:34;;;;;;;19.83;10.50;;;13.20;99.90;;;;;;5093593;28;20045;-45
2022/05/10 05:44:00;;;;;;;23.38;10.15;;;13.20;99.90;;;;;;5093675;28;20031;-47
2022/05/10 05:46:25;;;;;;;20.80;10.55;;;15.20;99.90;;;;;;5094967;28;20052;-46
2022/05/10 05:48:51;;;;;;;20.33;10.07;;;13.90;99.90;;;;;;5093507;28;20035;-46
2022/05/10 05:51:20;;;;;;;14.10;8.80;;;14.40;99.90;;;;;;5093882;28;20042;-60
2022/05/10 05:53:46;;;;;;;15.38;9.23;;;13.40;99.90;;;;;;5093332;28;20083;-60
2022/05/10 05:56:13;;;;;;;15.75;8.95;;;13.90;99.90;;;;;;5094868;28;20448;-61
2022/05/10 05:58:40;;;;;;;15.48;8.93;;;13.70;99.90;;;;;;5092871;28;20112;-60
2022/05/10 06:01:16;;;;;;;15.65;9.48;;;14.70;99.90;;;;;;5092950;28;20712;-60
2022/05/10 06:03:42;;;;;;;20.25;9.82;;;14.10;99.90;;;;;;5092882;28;20040;-61
2022/05/10 06:06:10;;;;;;;14.90;8.90;;;16.00;99.90;;;;;;5092818;28;20130;-60
2022/05/10 06:08:38;;;;;;;14.85;8.98;;;15.10;99.90;;;;;;5091565;28;20039;-60
2022/05/10 06:11:03;;;;;;;13.32;8.82;;;15.50;99.90;;;;;;5093202;28;20123;-60
2022/05/10 06:13:29;;;;;;;14.45;8.15;;;16.40;99.90;;;;;;5093351;28;20126;-60
2022/05/10 06:15:55;;;;;;;17.83;8.52;;;15.00;99.90;;;;;;5091764;28;20496;-60
2022/05/10 06:18:20;;;;;;;12.05;7.95;;;15.90;99.90;;;;;;5091880;28;20050;-61
2022/05/10 06:20:46;;;;;;;15.25;8.90;;;15.40;99.90;;;;;;5092911;28;20036;-60
2022/05/10 06:23:12;;;;;;;17.35;8.52;;;15.80;99.90;;;;;;5094672;28;20035;-61
2022/05/10 06:25:37;;;;;;;22.30;8.10;;;16.80;99.90;;;;;;5095578;28;20032;-60
2022/05/10 06:28:04;;;;;;;12.48;7.65;;;16.20;99.90;;;;;;5096441;28;20050;-60
2022/05/10 06:30:32;;;;;;;15.73;7.97;;;16.30;99.90;;;;;;5096695;28;20036;-60
2022/05/10 06:32:59;;;;;;;17.02;7.95;;;16.50;99.90;;;;;;5095945;28;20569;-60
2022/05/10 06:35:26;;;;;;;14.18;8.20;;;17.70;99.90;;;;;;5095995;28;20035;-60
2022/05/10 06:40:39;;;;;;;11.00;6.65;;;17.50;99.90;;;;;;5096625;28;20338;-59
2022/05/10 06:43:05;;;;;;;11.93;6.47;;;17.50;99.90;;;;;;5098377;28;20035;-60
2022/05/10 06:45:30;;;;;;;11.55;6.97;;;17.60;99.90;;;;;;5095624;28;20040;-60
2022/05/10 06:47:56;;;;;;;14.27;6.68;;;17.60;99.90;;;;;;5096913;28;20043;-59
2022/05/10 06:50:25;;;;;;;14.82;6.32;;;17.50;99.90;;;;;;5095693;28;20082;-59
2022/05/10 06:52:54;;;;;;;14.63;6.07;;;17.80;99.90;;;;;;5097347;28;20138;-60
2022/05/10 06:55:20;;;;;;;11.65;6.68;;;18.10;99.90;;;;;;5096837;28;20154;-60
2022/05/10 06:57:46;;;;;;;10.07;6.22;;;17.80;99.90;;;;;;5095465;28;20507;-60
2022/05/10 07:00:13;;;;;;;9.10;6.35;;;18.00;99.90;;;;;;5095254;28;20053;-60
2022/05/10 07:02:39;;;;;;;12.75;6.28;;;18.20;99.90;;;;;;5096065;28;20046;-60
2022/05/10 07:05:08;;;;;;;12.45;6.00;;;18.40;99.90;;;;;;5097071;28;20027;-60
2022/05/10 07:07:34;;;;;;;13.95;5.78;;;18.30;99.90;;;;;;5097408;28;20086;-60
2022/05/10 07:10:01;;;;;;;11.88;5.97;;;18.40;99.90;;;;;;5096994;28;20130;-59
2022/05/10 07:12:28;;;;;;;13.98;5.93;;;18.50;99.90;;;;;;5078899;28;20055;-60
2022/05/10 07:14:54;;;;;;;9.40;4.85;;;19.10;99.90;;;;;;5097469;28;20177;-59
2022/05/10 07:17:20;;;;;;;11.65;5.55;;;19.20;99.90;;;;;;5096715;28;20114;-59
2022/05/10 07:19:46;;;;;;;12.27;5.95;;;21.10;99.90;;;;;;5097391;28;20135;-59
2022/05/10 07:22:11;;;;;;;10.43;5.40;;;19.70;99.90;;;;;;5096311;28;20085;-60
2022/05/10 07:24:37;;;;;;;14.27;5.70;;;19.80;99.90;;;;;;5094714;28;20727;-60
2022/05/10 07:27:03;;;;;;;13.00;5.57;;;20.10;99.90;;;;;;5095683;28;20778;-59
2022/05/10 07:29:31;;;;;;;10.60;5.50;;;20.30;99.90;;;;;;5096717;28;20044;-60
2022/05/10 07:31:56;;;;;;;16.23;6.10;;;21.10;99.90;;;;;;5095528;28;20088;-59
2022/05/10 07:34:22;;;;;;;13.15;5.28;;;20.80;99.90;;;;;;5094737;28;20040;-59
2022/05/10 07:36:48;;;;;;;17.77;5.82;;;20.20;99.90;;;;;;5094606;28;20046;-60
2022/05/10 07:39:18;;;;;;;12.32;5.72;;;19.90;99.90;;;;;;5095908;27;20077;-60
2022/05/10 07:41:44;;;;;;;11.15;5.53;;;19.90;99.90;;;;;;5096669;28;20047;-59
2022/05/10 07:44:11;;;;;;;12.88;4.88;;;21.70;99.90;;;;;;5094108;28;20040;-59
2022/05/10 07:46:38;;;;;;;13.82;5.18;;;20.50;99.90;;;;;;5095880;28;20035;-59
2022/05/10 07:49:04;;;;;;;12.13;5.60;;;19.40;99.90;;;;;;5095136;28;20118;-59
2022/05/10 07:51:30;;;;;;;12.60;5.35;;;20.90;99.90;;;;;;5096832;28;20059;-60
2022/05/10 07:54:00;;;;;;;16.02;5.05;;;19.40;99.90;;;;;;5095296;28;20044;-59
2022/05/10 07:56:26;;;;;;;11.18;5.00;;;19.30;99.90;;;;;;5095583;28;20196;-59
2022/05/10 07:58:53;;;;;;;15.23;5.28;;;19.50;99.90;;;;;;5094866;28;20517;-60
2022/05/10 08:01:19;;;;;;;14.57;5.00;;;20.60;99.90;;;;;;5095862;28;20114;-60
2022/05/10 08:03:46;;;;;;;10.30;4.75;;;19.50;99.90;;;;;;5094968;28;20121;-59
2022/05/10 08:06:11;;;;;;;10.43;5.13;;;19.40;99.90;;;;;;5096085;28;20036;-60
2022/05/10 08:08:37;;;;;;;12.15;4.68;;;19.20;99.90;;;;;;5095314;28;20034;-59
2022/05/10 08:11:05;;;;;;;15.20;4.70;;;19.50;99.90;;;;;;5094844;28;20051;-60
2022/05/10 08:13:32;;;;;;;11.32;4.88;;;19.50;99.90;;;;;;5096038;28;20047;-60
2022/05/10 08:16:00;;;;;;;13.55;4.40;;;20.20;99.90;;;;;;5094781;28;20050;-60
2022/05/10 08:18:27;;;;;;;9.02;3.95;;;20.10;99.90;;;;;;5095705;28;20039;-60
2022/05/10 08:20:56;;;;;;;10.35;4.43;;;19.60;99.90;;;;;;5095499;28;20042;-60
2022/05/10 08:23:25;;;;;;;15.38;4.28;;;21.60;99.90;;;;;;5095752;28;20105;-60
2022/05/10 08:25:55;;;;;;;13.45;4.22;;;20.80;99.90;;;;;;5095012;28;20043;-60
2022/05/10 08:28:28;;;;;;;15.52;4.47;;;19.70;99.90;;;;;;5092983;28;20063;-60
2022/05/10 08:30:55;;;;;;;12.18;4.00;;;20.00;99.90;;;;;;5094813;28;20032;-59
2022/05/10 08:33:23;;;;;;;13.98;4.55;;;20.00;99.90;;;;;;5094909;28;20063;-59
2022/05/10 08:35:52;;;;;;;12.25;3.78;;;20.40;99.90;;;;;;5091436;28;20411;-59
2022/05/10 08:38:18;;;;;;;10.43;3.47;;;20.50;99.90;;;;;;5093972;28;20054;-59
2022/05/10 08:41:10;;;;;;;10.55;4.05;;;20.40;99.90;;;;;;5094327;28;20519;-59
2022/05/10 08:43:39;;;;;;;;;;;21.70;99.90;;;;;;5032124;28;20093;-59
2022/05/10 08:46:08;;;;;;;10.93;4.72;;;21.50;99.90;;;;;;5031446;28;19924;-60
2022/05/10 08:48:34;;;;;;;11.25;3.58;;;20.40;99.90;;;;;;5029774;28;20152;-59
2022/05/10 08:51:02;;;;;;;14.07;4.20;;;20.30;99.90;;;;;;5027903;28;20457;-59
2022/05/10 08:53:28;;;;;;;9.60;3.70;;;20.40;99.90;;;;;;5028512;28;20069;-59
2022/05/10 08:56:24;;;;;;;10.93;3.70;;;20.50;99.90;;;;;;5030296;28;20075;-60
2022/05/10 08:59:25;;;;;;;12.85;3.65;;;20.40;99.90;;;;;;5030211;28;20517;-59
2022/05/10 09:02:04;;;;;;;10.38;3.72;;;20.30;99.90;;;;;;5026937;28;20045;-59
2022/05/10 09:04:47;;;;;;;7.63;3.83;;;20.70;99.90;;;;;;5030311;28;20037;-59
2022/05/10 09:07:55;;;;;;;10.77;3.17;;;20.60;99.90;;;;;;5028582;28;20059;-59
2022/05/10 09:10:27;;;;;;;8.90;3.28;;;20.60;99.90;;;;;;4970539;28;20420;-59
2022/05/10 09:13:03;;;;;;;;;;;22.00;99.90;;;;;;4971258;28;20471;-59
2022/05/10 09:15:34;;;;;;;8.93;3.40;;;20.70;99.90;;;;;;4971079;28;19974;-60
2022/05/10 09:18:18;;;;;;;11.55;3.80;;;20.90;99.90;;;;;;4971221;28;20066;-59
2022/05/10 09:21:06;;;;;;;11.95;3.33;;;22.30;99.90;;;;;;5006423;28;20041;-59
2022/05/10 09:23:54;;;;;;;11.25;3.47;;;20.90;99.90;;;;;;5015599;28;20037;-60
2022/05/10 09:26:24;;;;;;;9.15;3.30;;;21.20;99.90;;;;;;5029160;28;20044;-58
2022/05/10 09:29:05;;;;;;;12.45;3.50;;;21.30;99.90;;;;;;5028572;28;20076;-59
2022/05/10 09:37:29;;;;;;;10.00;3.97;;;21.60;99.90;;;;;;5029871;28;20079;-59
2022/05/10 09:39:57;;;;;;;7.72;3.55;;;21.70;99.90;;;;;;5029265;28;20045;-59
2022/05/10 09:42:33;;;;;;;9.68;4.03;;;21.80;99.90;;;;;;5029967;28;20426;-59
2022/05/10 09:45:00;;;;;;;14.38;4.68;;;22.20;99.90;;;;;;5029245;28;20383;-59
2022/05/10 09:47:28;;;;;;;8.52;3.97;;;22.10;99.90;;;;;;5072235;28;20138;-59
2022/05/10 09:50:11;;;;;;;11.15;4.22;;;22.10;99.90;;;;;;5092546;28;20114;-59
2022/05/10 09:52:37;;;;;;;9.82;4.22;;;22.10;99.90;;;;;;5093006;28;20038;-59
2022/05/10 09:55:12;;;;;;;25.15;6.70;;;22.90;99.90;;;;;;5093134;28;20051;-59
2022/05/10 09:57:39;;;;;;;11.30;4.50;;;21.90;99.90;;;;;;5093313;28;20046;-59
2022/05/10 10:00:12;;;;;;;9.25;3.97;;;21.90;99.90;;;;;;5090874;28;20048;-59
2022/05/10 10:02:41;;;;;;;10.43;4.65;;;21.80;99.90;;;;;;5092394;28;20047;-59
2022/05/10 10:05:25;;;;;;;15.88;4.43;;;22.00;99.90;;;;;;5091184;28;20527;-57
2022/05/10 10:07:57;;;;;;;12.68;4.53;;;22.10;99.90;;;;;;5091644;28;20743;-59
2022/05/10 10:10:28;;;;;;;17.23;5.22;;;22.30;99.90;;;;;;5091483;28;20048;-58
2022/05/10 10:12:55;;;;;;;16.35;5.15;;;22.20;99.90;;;;;;5091936;28;20652;-59
2022/05/10 10:15:29;;;;;;;14.18;5.18;;;22.50;99.90;;;;;;5091007;28;20048;-60
2022/05/10 10:18:01;;;;;;;12.10;5.38;;;22.70;99.90;;;;;;5090323;28;20043;-59
2022/05/10 10:20:49;;;;;;;72.03;28.80;;;22.90;99.90;;;;;;5092257;28;20732;-59
2022/05/10 10:23:29;;;;;;;16.10;5.22;;;22.90;99.90;;;;;;5091570;28;20047;-59
2022/05/10 10:26:03;;;;;;;31.90;14.52;;;22.90;99.90;;;;;;5090666;28;20143;-59
2022/05/10 10:28:38;;;;;;;321.00;142.63;;;23.00;99.90;;;;;;5091656;28;20131;-59
2022/05/10 10:31:14;;;;;;;1409.85;530.60;;;23.00;99.90;;;;;;5091675;28;20150;-59
2022/05/10 10:33:46;;;;;;;1285.13;899.80;;;22.70;99.90;;;;;;5089913;28;20886;-60
2022/05/10 10:36:23;;;;;;;1772.13;971.97;;;22.70;99.90;;;;;;5091662;28;20082;-59
2022/05/10 10:39:13;;;;;;;1684.38;943.15;;;22.80;99.90;;;;;;5090080;28;20303;-59
2022/05/10 10:42:08;;;;;;;1046.25;813.97;;;22.50;99.90;;;;;;5091470;28;20047;-59
2022/05/10 10:44:47;;;;;;;1166.97;921.67;;;22.30;99.90;;;;;;5086753;28;20051;-59
2022/05/10 10:47:24;;;;;;;726.10;662.67;;;22.40;99.90;;;;;;5090758;28;20435;-59
2022/05/10 10:49:52;;;;;;;696.47;632.63;;;22.00;99.90;;;;;;5090347;28;20046;-59
2022/05/10 10:52:18;;;;;;;582.15;532.72;;;21.90;99.90;;;;;;5089201;28;20054;-59
2022/05/10 10:54:46;;;;;;;588.22;541.92;;;21.80;99.90;;;;;;5092483;28;20050;-59
2022/05/10 10:57:28;;;;;;;718.72;647.38;;;21.60;99.90;;;;;;5092393;28;20100;-59
2022/05/10 10:59:57;;;;;;;664.70;609.03;;;21.60;99.90;;;;;;5091461;28;20092;-59
2022/05/10 11:02:40;;;;;;;745.15;678.45;;;21.30;99.90;;;;;;5093263;28;20139;-59
2022/05/10 11:05:49;;;;;;;673.90;614.70;;;21.10;99.90;;;;;;5091416;28;20035;-59
2022/05/10 11:08:41;;;;;;;608.08;555.65;;;21.00;99.90;;;;;;5011752;28;20081;-59
2022/05/10 11:11:13;;;;;;;710.63;645.72;;;21.20;99.90;;;;;;5012795;28;20053;-58
2022/05/10 11:14:06;;;;;;;728.25;663.42;;;21.10;99.90;;;;;;5013974;28;20080;-59
2022/05/10 11:17:01;;;;;;;1307.35;944.00;;;21.10;99.90;;;;;;5013055;28;20048;-58
2022/05/10 11:20:01;;;;;;;1533.93;979.75;;;21.10;99.90;;;;;;5015249;28;20076;-59
2022/05/10 11:22:32;;;;;;;1713.20;941.72;;;21.20;99.90;;;;;;5011392;28;20039;-58
2022/05/10 11:25:25;;;;;;;1999.90;927.17;;;21.40;99.90;;;;;;5011661;28;20068;-59
2022/05/10 11:28:04;;;;;;;391.50;192.48;;;21.50;99.90;;;;;;5010815;28;20033;-59
2022/05/10 11:31:06;;;;;;;172.52;83.75;;;21.70;99.90;;;;;;5012834;28;20046;-58
2022/05/10 11:33:59;;;;;;;116.00;70.28;;;21.70;99.90;;;;;;4996456;28;20064;-58
2022/05/10 11:36:44;;;;;;;27.00;16.20;;;22.00;99.90;;;;;;5011272;28;20076;-59
2022/05/10 11:39:31;;;;;;;226.98;52.72;;;21.90;99.90;;;;;;5012229;28;20057;-58
2022/05/10 11:42:35;;;;;;;32.08;14.90;;;22.10;99.90;;;;;;4995151;28;20128;-59
2022/05/10 11:45:32;;;;;;;21.15;12.10;;;22.30;99.90;;;;;;5062325;28;20048;-58
2022/05/10 11:48:08;;;;;;;31.77;18.52;;;22.50;99.90;;;;;;5094327;28;20160;-59
2022/05/10 11:54:31;;;;;;;22.23;7.53;;;22.70;99.90;;;;;;5094439;28;20058;-58
2022/05/10 11:56:58;;;;;;;11.07;7.10;;;22.70;99.90;;;;;;5030602;28;20040;-59
2022/05/10 11:59:32;;;;;;;17.77;6.97;;;23.10;99.90;;;;;;5046159;28;20083;-58
2022/05/10 12:01:59;;;;;;;11.02;5.80;;;22.90;99.90;;;;;;5048704;28;20044;-59
2022/05/10 12:04:45;;;;;;;21.70;12.40;;;22.80;99.90;;;;;;5048374;28;20526;-59
2022/05/10 12:07:24;;;;;;;15.63;8.43;;;23.00;99.90;;;;;;5046076;28;20087;-60
2022/05/10 12:10:15;;;;;;;707.72;235.30;;;22.60;99.90;;;;;;5046960;28;20922;-59
2022/05/10 12:12:41;;;;;;;25.90;14.20;;;22.60;99.90;;;;;;5049677;28;22229;-59
2022/05/10 12:21:30;;;;;;;780.88;311.00;;;22.50;99.90;;;;;;5045561;28;20060;-59
2022/05/10 12:24:02;;;;;;;121.43;67.97;;;22.00;99.90;;;;;;5049362;28;20052;-59
2022/05/10 12:26:48;;;;;;;62.95;25.70;;;22.30;99.90;;;;;;5048733;28;20148;-59
2022/05/10 12:29:34;;;;;;;1466.70;588.78;;;22.30;99.90;;;;;;5048142;28;20053;-58
2022/05/10 12:32:38;;;;;;;1778.20;881.78;;;22.40;99.90;;;;;;5060609;28;20081;-58
2022/05/10 12:35:44;;;;;;;1999.90;855.42;;;22.50;99.90;;;;;;5093073;28;20112;-59
2022/05/10 12:38:31;;;;;;;728.72;669.70;;;22.10;99.90;;;;;;5019838;28;20193;-59
2022/05/10 12:41:07;;;;;;;731.53;660.70;;;21.90;99.90;;;;;;5014306;28;20058;-58
2022/05/10 12:43:56;;;;;;;701.38;631.17;;;19.80;99.90;;;;;;5020245;28;20295;-60
2022/05/10 12:46:45;;;;;;;782.75;703.50;;;21.70;99.90;;;;;;4997691;28;20114;-59
2022/05/10 12:49:55;;;;;;;680.13;530.30;;;21.60;99.90;;;;;;5012543;28;20048;-58
2022/05/10 12:52:40;;;;;;;661.75;593.10;;;21.60;99.90;;;;;;4972507;28;20058;-59
2022/05/10 12:55:09;;;;;;;732.35;654.55;;;21.50;99.90;;;;;;4972411;28;20047;-59
2022/05/10 12:58:04;;;;;;;634.40;575.38;;;21.40;99.90;;;;;;4973455;28;20054;-58
2022/05/10 13:01:01;;;;;;;694.88;623.15;;;21.30;99.90;;;;;;4896635;29;20054;-58
2022/05/10 13:03:35;;;;;;;672.97;616.78;;;21.20;99.90;;;;;;4892028;29;20060;-59
2022/05/10 13:06:22;;;;;;;758.15;688.58;;;21.40;99.90;;;;;;4899298;29;20421;-59
2022/05/10 13:08:58;;;;;;;612.05;555.88;;;21.60;99.90;;;;;;4896446;29;20051;-59
2022/05/10 13:11:27;;;;;;;703.33;646.70;;;21.40;99.90;;;;;;4900319;28;20267;-58
2022/05/10 13:13:55;;;;;;;632.45;576.00;;;21.30;99.90;;;;;;4932643;28;20069;-59
2022/05/10 13:16:21;;;;;;;739.33;678.10;;;21.30;99.90;;;;;;4933670;28;20070;-59
2022/05/10 13:18:49;;;;;;;574.10;522.15;;;21.20;99.90;;;;;;4932636;28;20062;-58
2022/05/10 13:21:24;;;;;;;45.25;33.80;;;21.30;99.90;;;;;;4931069;28;20106;-59
2022/05/10 13:23:52;;;;;;;11.85;1.30;;;20.20;99.90;;;;;;4930222;28;20131;-58
2022/05/10 13:26:18;;;;;;;10.05;1.48;;;21.00;99.90;;;;;;4932906;28;20125;-58
2022/05/10 13:28:56;;;;;;;8.65;1.13;;;21.60;99.90;;;;;;4961180;28;20076;-61